Lodeynoye Pole, Russia
Current Conditions -  °F | °C
As of 12:00 PM on Wednesday 22 Oct 2014 (Local Time) from ULPB Reporting Station
Few Clouds Few Clouds  
Wind Chill:   Ceiling: Unl
Heat Index: 18°   Visibility: 6mi
Dew Point: 12°   Wind: 7mph
Humidity: 79%   Direction: 60°ENE
Pressure: 30.24"   Gusts: NA
Location:  60.73°N, 33.56°E
Report Text: ULPB 220900Z 06003MPS 030V090 9999 FEW010 M08/M11 Q1024 NOSIGRMK QBB300 QFE764/1019 SC045
Loading
Personal Weather Stations






























Interactive Weather Map
Tropical Storm Tracking
New forecast layout! Learn more

10-Day Weather Forecast

Advertisements
Track Severe Weather on mobile